Карточка аэропорта URRP

Внимание!
Информация на этой странице в стадии наполнения.
Если вы не увидели какой-то информации, или заметили неточность - пожалуйста сообщите нам!
Спасибо!
Команда RU-STAFF
Название аэропортаПлатов
Название аэропорта (англ.)Platov
Превышение282 ft. (86 m.)
Координаты47°29.634', 39°55.482'
Высота перехода3500 ft
Эшелон переходаFL50 (QNH >= 996); FL60 (QNH < 996)
Коды ответчика1001-1017
Зона ОрВДРостов-на-Дону РПИ (URRV)
Данные METARURRP 230630Z 09006MPS CAVOK 25/08 Q1017 R05/CLRD70 NOSIG RMK QFE758/1011
Проноз погоды (TAF)URRP 230455Z 2306/2406 10006G13MPS 9999 SCT020CB TEMPO 2306/2315 13007G14MPS TEMPO 2315/2324 05006G13MPS BECMG 2400/2401 07007G14MPS TEMPO 2401/2406 08008G16MPS
NOTAMshow/hide NOTAM
AWOS   TABLE

Информация о ВПП

ВПП Длина ВПП (м.) Покрытие Курс ВПП Частота ILS
233900Цементобетон226110.9
053900Цементобетон46111.5

Диспетчерские позиции

Позывной Наименование органа УВД Частота
URRP_APPПлатов-подход128.2
URRP_DELПлатов-деливери127.1
URRP_TWRПлатов-Вышка119.7
URRP_GNDПлатов - руление119.0
URRP_R_APPПлатов - Круг121.2



Спутниковое изображение